createdAt,value
2023-01-09T00:00:59.616Z,17.70
2023-01-09T00:03:26.634Z,17.57
2023-01-09T00:05:53.646Z,16.47
2023-01-09T00:08:20.741Z,17.60
2023-01-09T00:10:50.027Z,15.60
2023-01-09T00:13:18.402Z,16.37
2023-01-09T00:15:45.551Z,15.83
2023-01-09T00:18:13.162Z,17.17
2023-01-09T00:20:40.439Z,17.63
2023-01-09T00:23:07.528Z,19.07
2023-01-09T00:25:34.606Z,16.87
2023-01-09T00:28:01.987Z,19.53
2023-01-09T00:30:29.245Z,18.97
2023-01-09T00:32:56.535Z,17.07
2023-01-09T00:35:25.620Z,20.07
2023-01-09T00:37:52.653Z,20.13
2023-01-09T00:40:20.340Z,19.80
2023-01-09T00:42:53.584Z,21.87
2023-01-09T00:45:29.162Z,21.30
2023-01-09T00:48:04.470Z,22.27
2023-01-09T00:50:33.192Z,21.20
2023-01-09T00:53:03.822Z,20.67
2023-01-09T00:55:31.113Z,22.57
2023-01-09T00:57:58.155Z,22.83
2023-01-09T01:00:25.213Z,21.33
2023-01-09T01:02:52.304Z,22.80
2023-01-09T01:05:37.865Z,23.63
2023-01-09T01:08:13.187Z,21.30
2023-01-09T01:10:40.840Z,23.43
2023-01-09T01:13:08.332Z,24.33
2023-01-09T01:15:35.342Z,23.90
2023-01-09T01:18:02.342Z,22.30
2023-01-09T01:20:29.362Z,23.00
2023-01-09T01:22:56.323Z,24.00
2023-01-09T01:25:23.564Z,22.90
2023-01-09T01:27:50.651Z,22.53
2023-01-09T01:30:18.604Z,22.70
2023-01-09T01:32:45.607Z,23.10
2023-01-09T01:35:18.765Z,23.37
2023-01-09T01:37:55.411Z,21.43
2023-01-09T01:40:22.353Z,22.23
2023-01-09T01:42:51.321Z,21.63
2023-01-09T01:45:36.200Z,21.13
2023-01-09T01:48:06.436Z,21.40
2023-01-09T01:50:39.870Z,20.77
2023-01-09T01:53:15.516Z,20.03
2023-01-09T01:55:54.927Z,21.15
2023-01-09T01:58:22.104Z,21.60
2023-01-09T02:00:49.169Z,21.63
2023-01-09T02:03:19.293Z,20.40
2023-01-09T02:05:46.289Z,21.50
2023-01-09T02:08:13.833Z,19.37
2023-01-09T02:10:41.321Z,19.83
2023-01-09T02:13:10.108Z,19.63
2023-01-09T02:15:56.852Z,20.67
2023-01-09T02:18:45.517Z,19.80
2023-01-09T02:21:19.316Z,20.17
2023-01-09T02:24:10.024Z,18.37
2023-01-09T02:26:57.954Z,17.63
2023-01-09T02:29:43.512Z,16.90
2023-01-09T02:32:38.454Z,17.80
2023-01-09T02:35:32.829Z,18.83
2023-01-09T02:38:18.465Z,18.10
2023-01-09T02:40:56.610Z,18.50
2023-01-09T02:43:24.616Z,19.10
2023-01-09T02:45:51.611Z,21.00
2023-01-09T02:48:18.677Z,19.57
2023-01-09T02:51:00.213Z,21.00
2023-01-09T02:53:53.103Z,18.00
2023-01-09T02:56:38.953Z,16.90
2023-01-09T02:59:12.013Z,19.07
2023-01-09T03:01:54.213Z,18.03
2023-01-09T03:04:56.697Z,17.30
2023-01-09T03:07:45.549Z,18.50
2023-01-09T03:10:20.240Z,16.73
2023-01-09T03:13:03.455Z,16.80
2023-01-09T03:15:37.499Z,16.77
2023-01-09T03:18:07.515Z,18.67
2023-01-09T03:20:35.552Z,16.83
2023-01-09T03:23:05.578Z,15.40
2023-01-09T03:25:33.109Z,16.00
2023-01-09T03:28:14.450Z,15.53
2023-01-09T03:30:41.488Z,15.47
2023-01-09T03:33:08.676Z,15.17
2023-01-09T03:35:35.657Z,14.77
2023-01-09T03:38:02.731Z,14.07
2023-01-09T03:40:29.789Z,14.00
2023-01-09T03:42:56.734Z,16.17
2023-01-09T03:45:23.715Z,16.00
2023-01-09T03:47:52.876Z,14.03
2023-01-09T03:50:20.094Z,14.83
2023-01-09T03:52:51.080Z,15.20
2023-01-09T03:55:18.087Z,14.00
2023-01-09T03:57:45.089Z,13.10
2023-01-09T04:00:13.130Z,13.80
2023-01-09T04:02:40.147Z,13.17
2023-01-09T04:05:07.991Z,15.53
2023-01-09T04:07:35.015Z,12.60
2023-01-09T04:10:01.965Z,13.67
2023-01-09T04:12:29.889Z,14.70
2023-01-09T04:14:56.921Z,15.63
2023-01-09T04:17:23.891Z,16.27
2023-01-09T04:19:50.979Z,13.93
2023-01-09T04:22:17.944Z,13.73
2023-01-09T04:24:44.869Z,14.00
2023-01-09T04:27:13.051Z,14.03
2023-01-09T04:29:40.054Z,14.83
2023-01-09T04:32:07.035Z,14.70
2023-01-09T04:34:33.997Z,14.67
2023-01-09T04:37:01.052Z,13.87
2023-01-09T04:39:28.078Z,14.50
2023-01-09T04:41:55.094Z,15.87
2023-01-09T04:44:26.446Z,17.17
2023-01-09T04:46:55.581Z,16.80
2023-01-09T04:49:23.196Z,14.07
2023-01-09T04:51:50.203Z,15.63
2023-01-09T04:54:17.383Z,15.63
2023-01-09T04:56:44.400Z,17.07
2023-01-09T04:59:11.502Z,14.50
2023-01-09T05:01:38.694Z,13.93
2023-01-09T05:04:06.784Z,14.77
2023-01-09T05:06:36.814Z,27.10
2023-01-09T05:09:03.900Z,17.27
2023-01-09T05:11:30.913Z,16.47
2023-01-09T05:13:57.850Z,15.83
2023-01-09T05:16:24.932Z,15.63
2023-01-09T05:18:56.640Z,14.70
2023-01-09T05:21:27.628Z,13.90
2023-01-09T05:23:54.668Z,14.37
2023-01-09T05:26:25.395Z,14.43
2023-01-09T05:28:53.659Z,12.67
2023-01-09T05:31:21.005Z,13.37
2023-01-09T05:33:48.074Z,12.13
2023-01-09T05:36:15.619Z,13.40
2023-01-09T05:38:42.848Z,14.37
2023-01-09T05:41:10.044Z,15.77
2023-01-09T05:43:37.021Z,14.17
2023-01-09T05:46:04.010Z,14.50
2023-01-09T05:48:30.984Z,12.93
2023-01-09T05:50:57.917Z,14.17
2023-01-09T05:53:24.927Z,14.50
2023-01-09T05:55:51.923Z,15.10
2023-01-09T05:58:18.911Z,14.00
2023-01-09T06:00:45.903Z,14.73
2023-01-09T06:03:12.991Z,13.80
2023-01-09T06:05:40.014Z,13.67
2023-01-09T06:08:06.992Z,14.50
2023-01-09T06:10:33.923Z,15.90
2023-01-09T06:13:00.955Z,17.30
2023-01-09T06:15:28.106Z,16.17
2023-01-09T06:17:55.100Z,17.30
2023-01-09T06:20:22.091Z,16.07
2023-01-09T06:22:52.121Z,17.83
2023-01-09T06:25:19.315Z,17.17
2023-01-09T06:27:46.324Z,16.17
2023-01-09T06:30:13.734Z,17.43
2023-01-09T06:32:40.703Z,19.40
2023-01-09T06:35:08.121Z,17.30
2023-01-09T06:37:35.183Z,18.77
2023-01-09T06:40:02.349Z,15.77
2023-01-09T06:42:30.783Z,20.03
2023-01-09T06:44:57.743Z,18.90
2023-01-09T06:47:24.769Z,15.83
2023-01-09T06:49:51.738Z,18.37
2023-01-09T06:52:18.697Z,17.13
2023-01-09T06:54:45.638Z,15.23
2023-01-09T06:57:14.623Z,15.33
2023-01-09T06:59:41.630Z,17.07
2023-01-09T07:02:18.132Z,14.47
2023-01-09T07:09:38.979Z,14.15
2023-01-09T07:12:06.664Z,13.27
2023-01-09T07:14:34.234Z,14.43
2023-01-09T07:17:01.238Z,14.50
2023-01-09T07:19:28.251Z,13.80
2023-01-09T07:21:55.225Z,13.73
2023-01-09T07:24:22.205Z,14.10
2023-01-09T07:26:49.186Z,12.60
2023-01-09T07:29:16.182Z,12.37
2023-01-09T07:31:43.173Z,14.33
2023-01-09T07:34:10.187Z,13.37
2023-01-09T07:36:37.166Z,13.47
2023-01-09T07:39:04.348Z,11.70
2023-01-09T07:41:31.281Z,13.20
2023-01-09T07:43:58.360Z,12.50
2023-01-09T07:46:25.419Z,12.43
2023-01-09T07:48:52.413Z,12.87
2023-01-09T07:51:19.384Z,12.00
2023-01-09T07:53:46.349Z,12.40
2023-01-09T07:56:13.310Z,13.90
2023-01-09T07:58:41.050Z,13.17
2023-01-09T08:01:08.032Z,13.50
2023-01-09T08:03:35.219Z,13.80
2023-01-09T08:06:02.228Z,15.07
2023-01-09T08:08:29.243Z,13.53
2023-01-09T08:10:56.728Z,12.67
2023-01-09T08:13:23.699Z,12.33
2023-01-09T08:15:50.702Z,12.07
2023-01-09T08:18:17.685Z,13.93
2023-01-09T08:20:44.620Z,13.60
2023-01-09T08:23:11.576Z,13.23
2023-01-09T08:25:38.592Z,13.70
2023-01-09T08:28:05.646Z,12.90
2023-01-09T08:30:32.623Z,13.27
2023-01-09T08:32:59.610Z,14.40
2023-01-09T08:35:26.588Z,14.13
2023-01-09T08:37:53.646Z,15.17
2023-01-09T08:40:20.607Z,15.17
2023-01-09T08:43:06.438Z,13.30
2023-01-09T08:45:53.076Z,15.63
2023-01-09T08:48:20.257Z,15.88
2023-01-09T08:50:47.409Z,15.30
2023-01-09T08:53:15.526Z,14.87
2023-01-09T08:55:43.343Z,15.47
2023-01-09T08:58:10.575Z,13.00
2023-01-09T09:00:37.831Z,14.30
2023-01-09T09:03:05.256Z,13.90
2023-01-09T09:05:33.197Z,13.87
2023-01-09T09:08:00.277Z,13.07
2023-01-09T09:10:29.084Z,13.13
2023-01-09T09:12:58.427Z,13.37
2023-01-09T09:15:26.989Z,13.80
2023-01-09T09:17:59.162Z,15.27
2023-01-09T09:20:29.511Z,13.90
2023-01-09T09:22:56.581Z,15.87
2023-01-09T09:25:23.627Z,14.23
2023-01-09T09:27:51.217Z,15.40
2023-01-09T09:30:19.947Z,15.00
2023-01-09T09:32:47.067Z,14.60
2023-01-09T09:35:14.506Z,14.93
2023-01-09T09:37:42.111Z,13.20
2023-01-09T09:40:20.165Z,13.90
2023-01-09T09:43:26.659Z,13.50
2023-01-09T09:46:12.146Z,13.47
2023-01-09T09:48:48.679Z,13.30
2023-01-09T09:53:56.257Z,14.73
2023-01-09T09:56:24.268Z,12.93
2023-01-09T09:58:57.590Z,13.70
2023-01-09T10:01:49.105Z,13.93
2023-01-09T10:04:19.198Z,13.63
2023-01-09T10:06:50.427Z,13.27
2023-01-09T10:09:50.000Z,14.20
2023-01-09T10:12:42.569Z,13.47
2023-01-09T10:15:26.722Z,11.33
2023-01-09T10:18:24.819Z,10.83
2023-01-09T10:20:56.602Z,12.37
2023-01-09T10:23:48.233Z,11.67
2023-01-09T10:26:25.928Z,11.93
2023-01-09T10:29:08.016Z,12.97
2023-01-09T10:31:40.928Z,13.67
2023-01-09T10:34:21.576Z,14.73
2023-01-09T10:36:57.595Z,15.43
2023-01-09T10:39:47.132Z,15.18
2023-01-09T10:42:48.079Z,13.63
2023-01-09T10:45:20.382Z,13.23
2023-01-09T10:47:48.543Z,13.37
2023-01-09T10:50:22.943Z,12.80
2023-01-09T10:52:52.120Z,13.67
2023-01-09T10:55:41.405Z,15.50
2023-01-09T10:58:13.598Z,14.50
2023-01-09T11:00:41.799Z,14.33
2023-01-09T11:03:18.590Z,14.37
2023-01-09T11:05:52.031Z,12.73
2023-01-09T11:08:23.129Z,14.80
2023-01-09T11:10:55.527Z,14.77
2023-01-09T11:13:25.302Z,14.57
2023-01-09T11:16:17.597Z,12.60
2023-01-09T11:18:56.365Z,13.03
2023-01-09T11:21:23.323Z,12.53
2023-01-09T11:23:50.542Z,12.80
2023-01-09T11:26:28.748Z,13.40
2023-01-09T11:29:14.926Z,14.73
2023-01-09T11:31:44.194Z,13.38
2023-01-09T11:34:26.479Z,12.90
2023-01-09T11:37:02.479Z,13.30
2023-01-09T11:39:32.861Z,12.95
2023-01-09T11:42:04.685Z,13.77
2023-01-09T11:44:33.134Z,16.53
2023-01-09T11:47:00.238Z,13.77
2023-01-09T11:49:30.294Z,13.47
2023-01-09T11:52:21.221Z,13.63
2023-01-09T11:55:05.986Z,12.43
2023-01-09T11:57:34.707Z,11.70
2023-01-09T12:00:10.316Z,13.33
2023-01-09T12:02:53.350Z,11.20
2023-01-09T12:05:45.381Z,11.93
2023-01-09T12:08:29.373Z,11.10
2023-01-09T12:11:40.813Z,13.33
2023-01-09T12:14:46.091Z,12.37
2023-01-09T12:17:33.582Z,16.60
2023-01-09T12:20:07.224Z,16.97
2023-01-09T12:23:12.235Z,16.83
2023-01-09T12:26:10.995Z,17.07
2023-01-09T12:29:13.268Z,17.53
2023-01-09T12:32:13.372Z,17.27
2023-01-09T12:35:00.656Z,17.43
2023-01-09T12:37:53.059Z,16.33
2023-01-09T12:40:56.962Z,17.10
2023-01-09T12:43:53.043Z,18.30
2023-01-09T12:46:22.027Z,16.87
2023-01-09T12:49:20.072Z,16.80
2023-01-09T12:52:17.548Z,17.20
2023-01-09T12:57:21.747Z,16.30
2023-01-09T12:59:54.240Z,16.30
2023-01-09T13:02:42.552Z,16.70
2023-01-09T13:05:23.585Z,15.50
2023-01-09T13:08:09.364Z,16.60
2023-01-09T13:10:51.618Z,17.07
2023-01-09T13:13:50.018Z,16.53
2023-01-09T13:16:33.215Z,16.27
2023-01-09T13:19:25.373Z,13.33
2023-01-09T13:21:53.697Z,12.37
2023-01-09T13:24:31.407Z,12.37
2023-01-09T13:27:02.366Z,13.03
2023-01-09T13:29:45.660Z,12.20
2023-01-09T13:32:18.266Z,11.93
2023-01-09T13:34:48.921Z,13.30
2023-01-09T13:37:32.158Z,13.43
2023-01-09T13:40:02.597Z,13.47
2023-01-09T13:42:39.134Z,11.77
2023-01-09T13:45:11.217Z,13.83
2023-01-09T13:47:38.625Z,12.47
2023-01-09T13:50:09.270Z,13.20
2023-01-09T13:52:40.970Z,11.67
2023-01-09T13:55:16.669Z,12.20
2023-01-09T13:58:08.736Z,12.15
2023-01-09T14:00:35.711Z,11.73
2023-01-09T14:03:08.654Z,11.00
2023-01-09T14:05:35.554Z,10.67
2023-01-09T14:08:24.074Z,11.43
2023-01-09T14:10:57.968Z,12.00
2023-01-09T14:13:29.113Z,11.77
2023-01-09T14:16:27.227Z,13.33
2023-01-09T14:19:00.351Z,12.20
2023-01-09T14:21:44.830Z,12.47
2023-01-09T14:24:27.220Z,12.03
2023-01-09T14:26:57.979Z,12.57
2023-01-09T14:29:44.874Z,12.27
2023-01-09T14:32:23.821Z,12.45
2023-01-09T14:34:57.792Z,12.50
2023-01-09T14:37:26.494Z,13.70
2023-01-09T14:39:53.735Z,13.20
2023-01-09T14:42:24.892Z,13.47
2023-01-09T14:45:02.603Z,13.80
2023-01-09T14:47:31.198Z,11.70
2023-01-09T14:50:19.139Z,12.70
2023-01-09T14:52:53.272Z,11.47
2023-01-09T14:55:30.195Z,12.07
2023-01-09T14:58:19.510Z,12.63
2023-01-09T15:00:49.161Z,12.57
2023-01-09T15:03:16.702Z,12.57
2023-01-09T15:05:45.775Z,15.80
2023-01-09T15:08:19.317Z,13.57
2023-01-09T15:10:48.230Z,12.63
2023-01-09T15:13:27.646Z,12.33
2023-01-09T15:15:55.222Z,13.60
2023-01-09T15:18:27.851Z,14.60
2023-01-09T15:20:59.340Z,13.80
2023-01-09T15:23:30.408Z,13.87
2023-01-09T15:26:12.451Z,14.47
2023-01-09T15:28:42.963Z,16.10
2023-01-09T15:31:16.834Z,13.97
2023-01-09T15:33:46.554Z,15.33
2023-01-09T15:36:23.576Z,15.20
2023-01-09T15:38:51.712Z,12.40
2023-01-09T15:41:59.901Z,12.43
2023-01-09T15:44:30.334Z,12.93
2023-01-09T15:46:59.502Z,12.43
2023-01-09T15:49:27.099Z,13.00
2023-01-09T15:51:54.831Z,12.93
2023-01-09T15:54:30.858Z,13.43
2023-01-09T15:57:25.952Z,13.77
2023-01-09T15:59:54.505Z,15.20
2023-01-09T16:02:42.033Z,14.03
2023-01-09T16:05:15.098Z,12.13
2023-01-09T16:07:49.404Z,12.57
2023-01-09T16:10:32.124Z,11.47
2023-01-09T16:12:59.509Z,14.23
2023-01-09T16:15:27.478Z,14.33
2023-01-09T16:18:16.234Z,13.07
2023-01-09T16:20:44.572Z,17.03
2023-01-09T16:23:32.126Z,12.87
2023-01-09T16:26:20.024Z,13.07
2023-01-09T16:28:47.039Z,12.90
2023-01-09T16:31:30.020Z,11.70
2023-01-09T16:34:06.045Z,12.33
2023-01-09T16:36:36.966Z,11.02
2023-01-09T16:39:04.613Z,11.70
2023-01-09T16:41:50.257Z,12.80
2023-01-09T16:44:19.422Z,12.23
2023-01-09T16:46:46.595Z,13.57
2023-01-09T16:49:21.603Z,11.90
2023-01-09T16:51:49.172Z,11.93
2023-01-09T16:54:17.125Z,12.80
2023-01-09T16:56:48.613Z,12.53
2023-01-09T16:59:20.716Z,11.00
2023-01-09T17:01:48.624Z,11.27
2023-01-09T17:04:17.417Z,12.67
2023-01-09T17:06:44.919Z,12.37
2023-01-09T17:09:13.658Z,11.77
2023-01-09T17:11:41.132Z,11.70
2023-01-09T17:14:11.594Z,11.40
2023-01-09T17:16:41.687Z,12.83
2023-01-09T17:19:17.253Z,13.97
2023-01-09T17:21:44.512Z,10.70
2023-01-09T17:24:30.079Z,12.23
2023-01-09T17:27:16.035Z,10.77
2023-01-09T17:29:44.477Z,11.35
2023-01-09T17:32:16.373Z,10.50
2023-01-09T17:34:43.744Z,11.80
2023-01-09T17:37:16.068Z,10.50
2023-01-09T17:39:44.362Z,10.50
2023-01-09T17:42:12.076Z,11.60
2023-01-09T17:44:39.072Z,10.93
2023-01-09T17:47:07.287Z,11.57
2023-01-09T17:49:34.547Z,12.10
2023-01-09T17:52:01.526Z,11.17
2023-01-09T17:54:28.594Z,10.00
2023-01-09T17:56:55.674Z,10.63
2023-01-09T17:59:22.653Z,11.87
2023-01-09T18:01:49.742Z,11.37
2023-01-09T18:04:16.764Z,10.13
2023-01-09T18:06:44.107Z,12.43
2023-01-09T18:09:15.457Z,10.07
2023-01-09T18:11:42.456Z,10.90
2023-01-09T18:14:14.477Z,10.97
2023-01-09T18:16:41.640Z,11.30
2023-01-09T18:19:09.951Z,11.43
2023-01-09T18:21:36.895Z,11.03
2023-01-09T18:24:04.038Z,11.43
2023-01-09T18:26:31.001Z,10.90
2023-01-09T18:29:00.392Z,10.37
2023-01-09T18:31:29.308Z,10.90
2023-01-09T18:33:58.889Z,10.40
2023-01-09T18:36:29.831Z,9.83
2023-01-09T18:38:59.757Z,10.93
2023-01-09T18:41:27.360Z,10.77
2023-01-09T18:43:57.146Z,10.27
2023-01-09T18:46:24.810Z,10.87
2023-01-09T18:48:56.561Z,10.90
2023-01-09T18:51:25.267Z,11.40
2023-01-09T18:53:52.912Z,10.00
2023-01-09T18:56:20.446Z,9.90
2023-01-09T18:58:48.344Z,9.67
2023-01-09T19:01:16.223Z,9.97
2023-01-09T19:03:43.375Z,9.50
2023-01-09T19:06:10.836Z,10.83
2023-01-09T19:08:38.123Z,10.53
2023-01-09T19:11:05.938Z,10.80
2023-01-09T19:13:35.776Z,11.37
2023-01-09T19:16:04.338Z,10.67
2023-01-09T19:18:38.765Z,11.00
2023-01-09T19:21:11.525Z,10.83
2023-01-09T19:23:38.529Z,10.57
2023-01-09T19:26:08.666Z,11.37
2023-01-09T19:28:36.617Z,11.90
2023-01-09T19:31:03.903Z,11.87
2023-01-09T19:33:30.994Z,10.00
2023-01-09T19:35:58.155Z,11.47
2023-01-09T19:38:26.880Z,10.50
2023-01-09T19:40:53.954Z,9.43
2023-01-09T19:43:26.873Z,10.57
2023-01-09T19:45:55.634Z,23.20
2023-01-09T19:48:23.982Z,11.43
2023-01-09T19:50:50.995Z,11.43
2023-01-09T19:53:18.511Z,11.37
2023-01-09T19:55:45.530Z,11.10
2023-01-09T19:58:12.543Z,12.30
2023-01-09T20:00:39.594Z,10.87
2023-01-09T20:03:06.621Z,11.43
2023-01-09T20:05:33.848Z,11.17
2023-01-09T20:08:00.879Z,10.70
2023-01-09T20:10:27.824Z,12.07
2023-01-09T20:12:54.957Z,13.17
2023-01-09T20:15:22.859Z,11.37
2023-01-09T20:17:49.874Z,11.17
2023-01-09T20:22:43.649Z,12.53
2023-01-09T20:25:10.598Z,11.70
2023-01-09T20:27:37.555Z,10.83
2023-01-09T20:30:05.509Z,12.17
2023-01-09T20:32:32.946Z,14.40
2023-01-09T20:35:00.883Z,12.13
2023-01-09T20:37:27.876Z,12.10
2023-01-09T20:39:54.807Z,12.87
2023-01-09T20:42:21.836Z,12.13
2023-01-09T20:44:48.859Z,12.10
2023-01-09T20:47:15.866Z,12.10
2023-01-09T20:49:42.853Z,12.57
2023-01-09T20:52:09.825Z,12.17
2023-01-09T20:54:41.101Z,12.33
2023-01-09T20:57:08.078Z,11.23
2023-01-09T20:59:35.034Z,10.77
2023-01-09T21:02:02.107Z,13.77
2023-01-09T21:04:31.251Z,11.10
2023-01-09T21:06:58.304Z,12.07
2023-01-09T21:09:26.257Z,12.23
2023-01-09T21:11:53.225Z,12.03
2023-01-09T21:14:20.306Z,10.97
2023-01-09T21:16:54.618Z,12.60
2023-01-09T21:19:22.831Z,11.03
2023-01-09T21:21:52.186Z,12.17
2023-01-09T21:24:20.027Z,11.33
2023-01-09T21:26:47.028Z,11.60
2023-01-09T21:29:14.037Z,10.87
2023-01-09T21:31:41.141Z,13.30
2023-01-09T21:34:08.533Z,13.50
2023-01-09T21:36:36.142Z,12.87
2023-01-09T21:39:07.847Z,14.27
2023-01-09T21:41:54.361Z,13.13
2023-01-09T21:44:39.956Z,12.20
2023-01-09T21:47:06.985Z,13.27
2023-01-09T21:49:36.191Z,13.33
2023-01-09T21:52:04.754Z,12.73
2023-01-09T21:54:33.055Z,13.93
2023-01-09T21:57:00.247Z,11.33
2023-01-09T21:59:27.664Z,11.33
2023-01-09T22:01:54.782Z,12.20
2023-01-09T22:04:30.676Z,12.47
2023-01-09T22:06:57.659Z,12.48
2023-01-09T22:09:24.744Z,12.80
2023-01-09T22:11:51.828Z,12.83
2023-01-09T22:14:19.966Z,12.70
2023-01-09T22:16:47.391Z,11.27
2023-01-09T22:19:18.159Z,11.33
2023-01-09T22:21:45.746Z,12.70
2023-01-09T22:24:14.363Z,13.23
2023-01-09T22:26:41.468Z,11.13
2023-01-09T22:29:08.659Z,10.97
2023-01-09T22:31:39.776Z,10.73
2023-01-09T22:34:07.095Z,9.87
2023-01-09T22:36:34.122Z,10.57
2023-01-09T22:39:01.494Z,11.93
2023-01-09T22:41:30.625Z,11.50
2023-01-09T22:43:58.602Z,10.57
2023-01-09T22:46:25.976Z,11.50
2023-01-09T22:48:52.962Z,10.57
2023-01-09T22:51:21.528Z,9.47
2023-01-09T22:53:49.384Z,10.43
2023-01-09T22:56:19.338Z,10.57
2023-01-09T22:58:58.543Z,9.97
2023-01-09T23:01:25.615Z,11.17
2023-01-09T23:03:52.754Z,11.50
2023-01-09T23:06:21.719Z,10.10
2023-01-09T23:08:51.010Z,10.67
2023-01-09T23:11:44.146Z,10.67
2023-01-09T23:14:11.701Z,11.43
2023-01-09T23:16:38.918Z,10.33
2023-01-09T23:19:14.733Z,10.77
2023-01-09T23:21:42.592Z,11.13
2023-01-09T23:24:10.105Z,9.97
2023-01-09T23:26:38.881Z,10.93
2023-01-09T23:29:07.358Z,9.60
2023-01-09T23:31:34.902Z,11.23
2023-01-09T23:34:02.377Z,11.43
2023-01-09T23:36:29.733Z,9.33
2023-01-09T23:38:56.900Z,12.00
2023-01-09T23:41:43.807Z,10.00
2023-01-09T23:44:10.821Z,10.63
2023-01-09T23:46:37.850Z,9.13
2023-01-09T23:49:04.805Z,10.33
2023-01-09T23:51:31.798Z,10.37
2023-01-09T23:53:58.947Z,11.23
2023-01-09T23:56:25.911Z,11.30
2023-01-09T23:58:52.914Z,9.93
